createdAt,value
2019-03-31T00:03:59.119Z,101116.96
2019-03-31T00:08:06.000Z,101120.36
2019-03-31T00:12:11.734Z,101119.12
2019-03-31T00:16:17.444Z,101118.54
2019-03-31T00:20:23.771Z,101118.54
2019-03-31T00:24:29.459Z,101127.56
2019-03-31T00:28:35.422Z,101120.14
2019-03-31T00:32:41.134Z,101120.70
2019-03-31T00:36:46.882Z,101126.37
2019-03-31T00:40:52.641Z,101125.50
2019-03-31T00:44:58.467Z,101132.72
2019-03-31T00:49:04.236Z,101123.47
2019-03-31T00:53:10.007Z,101130.25
2019-03-31T00:57:17.196Z,101138.20
2019-03-31T01:01:42.513Z,101133.91
2019-03-31T01:05:48.521Z,101131.72
2019-03-31T01:14:33.354Z,101135.20
2019-03-31T01:18:39.029Z,101137.23
2019-03-31T01:22:44.711Z,101142.67
2019-03-31T01:26:50.551Z,101141.94
2019-03-31T01:30:56.402Z,101145.69
2019-03-31T01:35:04.227Z,101148.58
2019-03-31T01:39:10.327Z,101146.25
2019-03-31T01:43:16.419Z,101143.31
2019-03-31T01:47:22.766Z,101151.81
2019-03-31T01:51:28.575Z,101149.82
2019-03-31T01:55:34.372Z,101144.81
2019-03-31T01:59:40.134Z,101154.17
2019-03-31T02:03:46.014Z,101150.59
2019-03-31T02:07:51.869Z,101148.50
2019-03-31T02:11:57.489Z,101148.52
2019-03-31T02:16:03.305Z,101146.73
2019-03-31T02:20:09.259Z,101153.44
2019-03-31T02:24:15.043Z,101151.85
2019-03-31T02:28:20.966Z,101155.29
2019-03-31T02:32:26.639Z,101148.62
2019-03-31T02:36:32.804Z,101149.16
2019-03-31T02:40:39.429Z,101143.26
2019-03-31T02:44:45.353Z,101140.38
2019-03-31T02:48:53.126Z,101144.82
2019-03-31T02:52:58.899Z,101148.66
2019-03-31T02:57:15.949Z,101141.66
2019-03-31T03:01:33.231Z,101142.94
2019-03-31T03:06:00.790Z,101142.94
2019-03-31T03:10:06.811Z,101139.06
2019-03-31T03:14:13.443Z,101143.50
2019-03-31T03:22:49.367Z,101146.41
2019-03-31T03:26:55.062Z,101144.16
2019-03-31T03:31:01.176Z,101151.27
2019-03-31T03:35:08.018Z,101149.54
2019-03-31T03:39:13.818Z,101145.80
2019-03-31T03:43:19.732Z,101147.30
2019-03-31T03:47:25.428Z,101154.55
2019-03-31T03:51:42.766Z,101160.16
2019-03-31T03:55:48.599Z,101160.16
2019-03-31T03:59:54.420Z,101163.58
2019-03-31T04:04:00.436Z,101170.01
2019-03-31T04:08:06.186Z,101171.14
2019-03-31T04:12:11.993Z,101173.77
2019-03-31T04:16:17.908Z,101176.97
2019-03-31T04:20:23.847Z,101170.27
2019-03-31T04:24:29.703Z,101174.15
2019-03-31T04:28:35.397Z,101178.69
2019-03-31T04:32:41.109Z,101185.22
2019-03-31T04:36:46.833Z,101188.17
2019-03-31T04:40:52.527Z,101189.16
2019-03-31T04:44:58.250Z,101202.31
2019-03-31T04:49:05.146Z,101191.66
2019-03-31T04:53:12.447Z,101194.53
2019-03-31T04:57:18.228Z,101199.52
2019-03-31T05:01:24.044Z,101198.20
2019-03-31T05:05:30.654Z,101201.72
2019-03-31T05:09:36.416Z,101204.25
2019-03-31T05:18:07.052Z,101214.01
2019-03-31T05:22:12.845Z,101215.28
2019-03-31T05:26:18.707Z,101207.85
2019-03-31T05:30:24.525Z,101216.04
2019-03-31T05:34:30.184Z,101229.98
2019-03-31T05:38:35.840Z,101236.29
2019-03-31T05:42:41.542Z,101232.66
2019-03-31T05:46:47.254Z,101241.81
2019-03-31T05:51:11.917Z,101251.79
2019-03-31T05:55:18.946Z,101248.44
2019-03-31T05:59:30.630Z,101258.11
2019-03-31T06:03:36.338Z,101257.70
2019-03-31T06:07:42.456Z,101259.81
2019-03-31T06:11:48.184Z,101258.86
2019-03-31T06:15:53.954Z,101266.84
2019-03-31T06:19:59.627Z,101266.95
2019-03-31T06:24:05.378Z,101273.52
2019-03-31T06:28:11.135Z,101273.68
2019-03-31T06:32:17.276Z,101281.77
2019-03-31T06:36:23.049Z,101278.16
2019-03-31T06:40:30.494Z,101295.40
2019-03-31T06:44:38.150Z,101304.23
2019-03-31T06:48:49.159Z,101309.89
2019-03-31T06:52:54.903Z,101306.93
2019-03-31T06:57:02.320Z,101311.33
2019-03-31T07:01:08.096Z,101324.50
2019-03-31T07:05:14.103Z,101332.66
2019-03-31T07:09:19.879Z,101333.66
2019-03-31T07:13:25.575Z,101336.60
2019-03-31T07:17:31.316Z,101341.80
2019-03-31T07:21:37.075Z,101352.80
2019-03-31T07:25:42.880Z,101349.91
2019-03-31T07:29:48.583Z,101353.17
2019-03-31T07:33:54.415Z,101356.98
2019-03-31T07:38:00.118Z,101363.40
2019-03-31T07:42:17.060Z,101381.30
2019-03-31T07:46:22.975Z,101381.30
2019-03-31T07:50:28.837Z,101391.07
2019-03-31T07:54:34.563Z,101387.27
2019-03-31T07:58:40.287Z,101391.68
2019-03-31T08:02:46.056Z,101398.55
2019-03-31T08:06:51.733Z,101402.65
2019-03-31T08:10:57.773Z,101409.80
2019-03-31T08:15:03.477Z,101412.55
2019-03-31T08:19:09.135Z,101416.66
2019-03-31T08:23:14.901Z,101419.06
2019-03-31T08:27:21.632Z,101390.94
2019-03-31T08:31:27.367Z,101381.91
2019-03-31T08:35:46.238Z,101388.41
2019-03-31T08:39:59.554Z,101386.63
2019-03-31T08:44:05.393Z,101392.64
2019-03-31T08:48:11.382Z,101392.94
2019-03-31T08:52:17.268Z,101392.24
2019-03-31T08:56:23.653Z,101407.66
2019-03-31T09:00:48.384Z,101413.61
2019-03-31T09:04:58.332Z,101419.67
2019-03-31T09:09:25.375Z,101420.93
2019-03-31T09:13:31.134Z,101430.02
2019-03-31T09:17:36.826Z,101435.86
2019-03-31T09:21:42.513Z,101431.23
2019-03-31T09:25:48.517Z,101431.91
2019-03-31T09:29:54.203Z,101441.61
2019-03-31T09:34:00.071Z,101447.14
2019-03-31T09:38:06.752Z,101444.40
2019-03-31T09:42:13.062Z,101443.68
2019-03-31T09:46:18.914Z,101449.80
2019-03-31T09:50:24.686Z,101457.75
2019-03-31T09:54:30.505Z,101460.39
2019-03-31T09:58:36.217Z,101474.33
2019-03-31T10:02:42.312Z,101472.09
2019-03-31T10:06:48.161Z,101469.00
2019-03-31T10:10:53.938Z,101469.00
2019-03-31T10:14:59.769Z,101476.72
2019-03-31T10:19:05.514Z,101480.42
2019-03-31T10:23:11.231Z,101484.52
2019-03-31T10:27:17.007Z,101478.25
2019-03-31T10:31:22.776Z,101491.63
2019-03-31T10:35:28.853Z,101484.81
2019-03-31T10:39:34.648Z,101480.84
2019-03-31T10:44:01.590Z,101474.64
2019-03-31T10:48:19.519Z,101476.89
2019-03-31T10:52:20.765Z,101485.03
2019-03-31T10:56:26.571Z,101494.63
2019-03-31T11:00:36.707Z,101483.86
2019-03-31T11:04:42.548Z,101483.76
2019-03-31T11:08:48.243Z,101488.40
2019-03-31T11:13:04.963Z,101473.67
2019-03-31T11:17:10.736Z,101472.52
2019-03-31T11:21:35.916Z,101481.65
2019-03-31T11:25:43.388Z,101480.58
2019-03-31T11:29:49.091Z,101479.28
2019-03-31T11:33:54.801Z,101480.03
2019-03-31T11:38:00.586Z,101483.14
2019-03-31T11:42:06.570Z,101491.34
2019-03-31T11:46:12.287Z,101487.02
2019-03-31T11:54:53.852Z,101484.55
2019-03-31T11:58:59.537Z,101472.15
2019-03-31T12:03:05.298Z,101483.75
2019-03-31T12:07:11.239Z,101476.05
2019-03-31T12:11:17.306Z,101480.30
2019-03-31T12:15:22.991Z,101473.70
2019-03-31T12:19:29.872Z,101477.10
2019-03-31T12:23:35.542Z,101466.67
2019-03-31T12:27:41.249Z,101458.69
2019-03-31T12:31:47.005Z,101468.07
2019-03-31T12:35:52.834Z,101457.80
2019-03-31T12:39:58.536Z,101458.84
2019-03-31T12:44:09.525Z,101455.95
2019-03-31T12:48:18.441Z,101447.51
2019-03-31T12:52:25.100Z,101446.74
2019-03-31T12:56:31.092Z,101446.91
2019-03-31T13:00:36.810Z,101446.00
2019-03-31T13:04:43.277Z,101443.77
2019-03-31T13:08:49.090Z,101438.87
2019-03-31T13:12:54.852Z,101443.12
2019-03-31T13:17:01.622Z,101441.05
2019-03-31T13:21:13.276Z,101442.05
2019-03-31T13:25:18.997Z,101428.93
2019-03-31T13:29:24.829Z,101426.34
2019-03-31T13:33:30.579Z,101438.79
2019-03-31T13:37:37.229Z,101435.61
2019-03-31T13:42:01.985Z,101426.33
2019-03-31T13:46:07.774Z,101432.86
2019-03-31T13:50:14.467Z,101428.28
2019-03-31T13:54:20.239Z,101424.19
2019-03-31T13:58:26.228Z,101424.72
2019-03-31T14:03:13.623Z,101420.67
2019-03-31T14:07:19.319Z,101411.92
2019-03-31T14:11:25.015Z,101419.20
2019-03-31T14:15:31.064Z,101408.00
2019-03-31T14:19:36.737Z,101401.61
2019-03-31T14:23:43.938Z,101410.34
2019-03-31T14:28:09.029Z,101408.11
2019-03-31T14:32:14.715Z,101399.64
2019-03-31T14:36:39.343Z,101401.74
2019-03-31T14:40:45.109Z,101401.61
2019-03-31T14:44:50.869Z,101390.95
2019-03-31T14:53:13.706Z,101393.72
2019-03-31T14:57:19.390Z,101390.41
2019-03-31T15:01:25.201Z,101388.50
2019-03-31T15:05:30.958Z,101386.60
2019-03-31T15:09:36.624Z,101389.50
2019-03-31T15:13:42.330Z,101399.02
2019-03-31T15:17:48.644Z,101391.36
2019-03-31T15:21:54.462Z,101396.50
2019-03-31T15:26:00.375Z,101403.48
2019-03-31T15:30:06.683Z,101388.64
2019-03-31T15:34:12.400Z,101395.25
2019-03-31T15:38:18.177Z,101390.80
2019-03-31T15:42:23.939Z,101388.97
2019-03-31T15:46:29.642Z,101390.63
2019-03-31T15:50:35.381Z,101391.66
2019-03-31T15:54:41.064Z,101391.84
2019-03-31T15:58:46.750Z,101389.78
2019-03-31T16:02:52.619Z,101390.73
2019-03-31T16:07:00.757Z,101391.56
2019-03-31T16:11:05.987Z,101394.66
2019-03-31T16:15:11.752Z,101394.21
2019-03-31T16:19:16.968Z,101394.03
2019-03-31T16:23:34.589Z,101398.41
2019-03-31T16:27:48.125Z,101394.47
2019-03-31T16:31:53.317Z,101397.13
2019-03-31T16:35:58.544Z,101401.00
2019-03-31T16:44:25.729Z,101399.63
2019-03-31T16:48:31.249Z,101407.10
2019-03-31T16:52:36.411Z,101413.91
2019-03-31T16:57:01.850Z,101411.07
2019-03-31T17:05:23.690Z,101415.19
2019-03-31T17:09:29.036Z,101423.64
2019-03-31T17:13:34.283Z,101409.84
2019-03-31T17:17:39.662Z,101414.48
2019-03-31T17:21:45.398Z,101418.92
2019-03-31T17:25:50.514Z,101420.49
2019-03-31T17:29:55.711Z,101425.62
2019-03-31T17:34:00.860Z,101421.61
2019-03-31T17:38:06.081Z,101425.84
2019-03-31T17:42:11.245Z,101412.05
2019-03-31T17:46:16.400Z,101412.77
2019-03-31T17:50:21.569Z,101415.36
2019-03-31T17:54:26.746Z,101407.52
2019-03-31T17:58:31.949Z,101415.12
2019-03-31T18:02:37.206Z,101401.96
2019-03-31T18:06:42.447Z,101420.97
2019-03-31T18:10:47.611Z,101421.39
2019-03-31T18:14:52.943Z,101430.53
2019-03-31T18:18:58.158Z,101422.55
2019-03-31T18:23:03.374Z,101431.73
2019-03-31T18:27:15.681Z,101435.80
2019-03-31T18:31:21.021Z,101428.27
2019-03-31T18:35:26.449Z,101440.44
2019-03-31T18:39:31.627Z,101447.73
2019-03-31T18:43:50.793Z,101450.27
2019-03-31T18:47:51.063Z,101446.70
2019-03-31T18:51:56.238Z,101451.59
2019-03-31T18:56:21.025Z,101453.32
2019-03-31T19:00:45.135Z,101461.02
2019-03-31T19:05:09.386Z,101469.91
2019-03-31T19:09:33.710Z,101465.58
2019-03-31T19:13:57.871Z,101481.90
2019-03-31T19:18:22.142Z,101466.49
2019-03-31T19:22:49.307Z,101470.22
2019-03-31T19:31:51.213Z,101478.14
2019-03-31T19:36:35.913Z,101477.62
2019-03-31T19:41:13.053Z,101483.80
2019-03-31T19:45:31.907Z,101481.19
2019-03-31T19:49:57.653Z,101482.16
2019-03-31T19:54:21.890Z,101483.20
2019-03-31T19:58:46.601Z,101493.30
2019-03-31T20:02:58.866Z,101498.95
2019-03-31T20:07:23.037Z,101494.34
2019-03-31T20:11:47.259Z,101500.59
2019-03-31T20:16:11.614Z,101499.95
2019-03-31T20:20:35.829Z,101498.42
2019-03-31T20:24:50.998Z,101500.78
2019-03-31T20:29:01.671Z,101507.45
2019-03-31T20:33:26.163Z,101507.57
2019-03-31T20:37:50.333Z,101509.39
2019-03-31T20:42:14.616Z,101498.90
2019-03-31T20:46:19.965Z,101498.16
2019-03-31T20:50:25.161Z,101501.41
2019-03-31T20:54:33.002Z,101501.21
2019-03-31T20:58:42.621Z,101504.78
2019-03-31T21:02:48.185Z,101502.52
2019-03-31T21:06:55.642Z,101494.95
2019-03-31T21:11:00.868Z,101499.04
2019-03-31T21:15:06.240Z,101504.39
2019-03-31T21:19:30.924Z,101508.68
2019-03-31T21:23:36.276Z,101511.52
2019-03-31T21:27:41.528Z,101515.85
2019-03-31T21:41:35.209Z,101510.63
2019-03-31T21:45:40.704Z,101521.71
2019-03-31T21:49:58.380Z,101514.61
2019-03-31T21:54:05.413Z,101518.73
2019-03-31T21:58:25.358Z,101520.67
2019-03-31T22:02:37.170Z,101523.70
2019-03-31T22:06:44.739Z,101521.01
2019-03-31T22:10:52.242Z,101526.72
2019-03-31T22:14:57.502Z,101530.56
2019-03-31T22:19:02.644Z,101524.63
2019-03-31T22:23:07.972Z,101531.86
2019-03-31T22:27:34.055Z,101530.30
2019-03-31T22:36:25.677Z,101527.09
2019-03-31T22:40:31.106Z,101518.82
2019-03-31T22:53:12.284Z,101511.86
2019-03-31T23:15:07.355Z,101509.91
2019-03-31T23:19:12.726Z,101504.09
2019-03-31T23:23:18.013Z,101502.28
2019-03-31T23:27:23.505Z,101494.61
2019-03-31T23:31:29.008Z,101497.14
2019-03-31T23:35:34.429Z,101494.55
2019-03-31T23:40:00.620Z,101499.11
2019-03-31T23:44:07.108Z,101490.03
2019-03-31T23:48:12.415Z,101490.80
2019-03-31T23:52:17.794Z,101488.98
2019-03-31T23:56:26.480Z,101491.05
